M\t Procida — IBJT — position and weather

sailwx.info

Track history (hours):
 
Tides and Currents Weather Stations Pressure Air Temp Water Temp Dewpoint Dewpoint Depression Visibility Wind Speed Wind Dir Waves Ship Positions

M\t Procida

Last reported at 2016-Jul-28 05:34 UTC. Time now 2016-Jul-28 06:43 UTC.
Position N 57°36' E 011°39'.

Length 149 m; draft 9.3 m.

Type: Tanker. MMSI: 247258400.

Date/timePositionNaut miles runAvg speedWind from/ knotsBaromVisibWave heightAir tempDewpointWater temp
2016-Jul-28 05:34N 57°36' E 011°39'2 2.2
2016-Jul-28 04:33N 57°34' E 011°39'0 0.0
2016-Jul-28 03:30N 57°34' E 011°39'0 0.0
2016-Jul-28 02:33N 57°34' E 011°39'1 0.5
2016-Jul-28 01:33N 57°34' E 011°38'8 7.9
2016-Jul-28 00:33N 57°37' E 011°24'1211.5
2016-Jul-27 23:33N 57°44' E 011°07'1212.4
2016-Jul-27 22:33N 57°49' E 010°46'1313.0
2016-Jul-27 21:33N 57°48' E 010°22'41312.4
2016-Jul-26 12:16N 56°11' W 001°55'912.3
2016-Jul-26 11:33N 56°10' W 002°10'1212.5
2016-Jul-26 10:33N 56°08' W 002°32'1313.2
2016-Jul-26 09:33N 56°07' W 002°56'3 3.2
2016-Jul-26 08:33N 56°08' W 003°02'2 2.0
2016-Jul-26 07:33N 56°06' W 003°03'10 9.6
2016-Jul-26 06:33N 56°01' W 003°18'1110.2
2016-Jul-26 05:29N 56°02' W 003°37'2 2.4
2016-Jul-26 04:33N 56°02' W 003°41'0 0.0
2016-Jul-24 05:33N 56°02' W 003°41'1 1.3
2016-Jul-24 04:28N 56°02' W 003°39'8 8.7
2016-Jul-24 03:31N 56°00' W 003°25'1010.9
2016-Jul-24 02:33N 56°03' W 003°07'2 1.9
2016-Jul-24 01:34N 56°04' W 003°04'0 0.1
2016-Jul-24 00:33N 56°04' W 003°04'0 0.1
2016-Jul-23 23:34N 56°05' W 003°04'0 0.0
2016-Jul-23 22:34N 56°05' W 003°04'0 0.0
2016-Jul-23 21:34N 56°05' W 003°04'0 0.0
2016-Jul-23 20:34N 56°05' W 003°04'0 0.0
2016-Jul-23 19:34N 56°05' W 003°04'0 0.0
2016-Jul-23 18:33N 56°05' W 003°04'0 0.0
2016-Jul-23 17:34N 56°05' W 003°04'0 0.1
2016-Jul-23 16:34N 56°05' W 003°04'0 0.0
2016-Jul-23 15:31N 56°05' W 003°04'0 0.0
2016-Jul-23 14:33N 56°04' W 003°04'0 0.0
2016-Jul-23 13:34N 56°04' W 003°04'0 0.0
2016-Jul-23 12:31N 56°04' W 003°04'0 0.0
2016-Jul-23 11:31N 56°04' W 003°04'0 0.1
2016-Jul-23 10:34N 56°05' W 003°04'0 0.0
2016-Jul-23 09:30N 56°05' W 003°04'0 0.0
2016-Jul-23 08:33N 56°05' W 003°04'0 0.0
2016-Jul-23 07:33N 56°05' W 003°04'0 0.0
2016-Jul-23 06:34N 56°05' W 003°04'0 0.0
2016-Jul-23 04:34N 56°05' W 003°04'0 0.1
2016-Jul-23 03:33N 56°05' W 003°04'2 2.2
2016-Jul-23 02:33N 56°05' W 003°01'8 7.6
2016-Jul-23 01:33N 56°07' W 002°47'1211.7
2016-Jul-23 00:33N 56°07' W 002°26'1312.5
2016-Jul-22 23:33N 56°04' W 002°04'1312.8
2016-Jul-22 22:33N 56°00' W 001°42'22312.3
2016-Jul-22 04:25N 54°02' E 003°48'1110.9
2016-Jul-22 03:23N 53°55' E 003°34'1512.3
2016-Jul-22 02:08N 53°44' E 003°14'812.9
2016-Jul-22 01:33N 53°38' E 003°07'1313.1
2016-Jul-22 00:33N 53°26' E 002°57'1312.8
2016-Jul-21 23:33N 53°15' E 002°48'1212.2
2016-Jul-21 22:33N 53°04' E 002°40'1111.6
2016-Jul-21 21:33N 52°52' E 002°43'1211.7
2016-Jul-21 20:33N 52°41' E 002°44'1212.4
2016-Jul-21 19:33N 52°28' E 002°43'1312.8
2016-Jul-21 18:33N 52°16' E 002°49'1413.9
2016-Jul-21 17:33N 52°06' E 003°04'1312.8
2016-Jul-21 16:31N 52°04' E 003°26'1212.2
2016-Jul-21 15:33N 52°04' E 003°45'1010.0
2016-Jul-21 14:33N 52°01' E 004°00'10 9.4
2016-Jul-21 13:32N 51°55' E 004°13'0 0.0
2016-Jul-21 12:32N 51°55' E 004°13'0 0.0
2016-Jul-21 11:29N 51°55' E 004°13'0 0.0
2016-Jul-21 10:32N 51°55' E 004°13'0 0.0
2016-Jul-21 09:32N 51°55' E 004°13'0 0.0
2016-Jul-21 08:32N 51°55' E 004°13'0 0.0
2016-Jul-21 07:32N 51°55' E 004°13'0 0.0
2016-Jul-21 06:32N 51°55' E 004°13'0 0.0
2016-Jul-21 05:32N 51°55' E 004°13'0 0.0
2016-Jul-21 04:32N 51°55' E 004°13'0 0.0
2016-Jul-21 03:29N 51°55' E 004°13'0 0.0
2016-Jul-21 02:32N 51°55' E 004°13'0 0.0
2016-Jul-21 01:32N 51°55' E 004°13'0 0.0
2016-Jul-21 00:32N 51°55' E 004°13'0 0.0
2016-Jul-20 23:32N 51°55' E 004°13'0 0.0
2016-Jul-20 22:32N 51°55' E 004°13'0 0.0
2016-Jul-20 21:32N 51°55' E 004°13'0 0.0
2016-Jul-20 20:32N 51°55' E 004°13'0 0.0
2016-Jul-20 19:32N 51°55' E 004°13'0 0.0
2016-Jul-20 18:32N 51°55' E 004°13'0 0.0
2016-Jul-20 17:32N 51°55' E 004°13'0 0.0
2016-Jul-20 16:29N 51°55' E 004°13'0 0.0
2016-Jul-20 15:32N 51°55' E 004°13'0 0.3
2016-Jul-20 14:33N 51°55' E 004°13'8 8.5
2016-Jul-20 13:34N 51°60' E 004°01'1111.2
2016-Jul-20 12:34N 51°59' E 003°43'6 5.3
2016-Jul-20 11:28N 51°55' E 003°36'0 0.1
2016-Jul-20 10:22N 51°55' E 003°36'0 0.0
2016-Jul-20 09:31N 51°55' E 003°36'0 0.0
2016-Jul-20 08:28N 51°55' E 003°36'0 0.0
2016-Jul-20 07:31N 51°55' E 003°36'0 0.1
2016-Jul-20 06:31N 51°55' E 003°36'0 0.1
2016-Jul-20 05:31N 51°55' E 003°36'0 0.1
2016-Jul-20 04:28N 51°55' E 003°36'0 0.0
2016-Jul-20 03:31N 51°55' E 003°36'0 0.0
2016-Jul-20 02:31N 51°55' E 003°36'0 0.0
2016-Jul-20 01:28N 51°55' E 003°36'0 0.0
2016-Jul-20 00:31N 51°55' E 003°36'0 0.2
2016-Jul-19 23:31N 51°55' E 003°36'0 0.0
2016-Jul-19 22:31N 51°55' E 003°36'0 0.0
2016-Jul-19 21:31N 51°55' E 003°36'0 0.0
2016-Jul-19 20:31N 51°55' E 003°36'0 0.0
2016-Jul-19 19:10N 51°55' E 003°36'0 0.0
2016-Jul-19 18:28N 51°55' E 003°36'0 0.0
2016-Jul-19 17:31N 51°55' E 003°36'0 0.1
2016-Jul-19 16:31N 51°55' E 003°36'0 0.0
2016-Jul-19 15:28N 51°55' E 003°36'0 0.0
2016-Jul-19 14:28N 51°55' E 003°36'0 0.0
2016-Jul-19 13:28N 51°55' E 003°36'0 0.1
2016-Jul-19 12:28N 51°55' E 003°36'0 0.1
2016-Jul-19 11:19N 51°55' E 003°36'0 0.0
2016-Jul-19 10:31N 51°55' E 003°36'0 0.0
2016-Jul-19 09:31N 51°55' E 003°36'0 0.0
2016-Jul-19 08:31N 51°55' E 003°36'0 0.0
2016-Jul-19 07:28N 51°55' E 003°36'0 0.1
2016-Jul-19 04:31N 51°55' E 003°36'0 0.0
2016-Jul-19 03:31N 51°55' E 003°36'0 0.0
2016-Jul-19 02:28N 51°55' E 003°36'0 0.0
2016-Jul-19 01:16N 51°55' E 003°36'0 0.0
2016-Jul-19 00:31N 51°55' E 003°36'0 0.0
2016-Jul-18 23:28N 51°55' E 003°36'0 0.2
2016-Jul-18 22:31N 51°55' E 003°36'0 0.0
2016-Jul-18 21:31N 51°55' E 003°36'0 0.0
2016-Jul-18 20:25N 51°55' E 003°36'0 0.0
2016-Jul-18 19:31N 51°55' E 003°36'0 0.0
2016-Jul-18 18:31N 51°55' E 003°36'0 0.0
2016-Jul-18 17:31N 51°55' E 003°36'0 0.1
2016-Jul-18 16:28N 51°55' E 003°36'0 0.0
2016-Jul-18 15:31N 51°55' E 003°36'0 0.0
2016-Jul-18 14:31N 51°55' E 003°36'0 0.0
2016-Jul-18 13:31N 51°55' E 003°36'0 0.0
2016-Jul-18 12:31N 51°55' E 003°36'0 0.0
2016-Jul-18 11:31N 51°55' E 003°36'0 0.1
2016-Jul-18 10:28N 51°55' E 003°36'0 0.1
2016-Jul-18 09:31N 51°55' E 003°36'0 0.0
2016-Jul-18 08:31N 51°55' E 003°36'0 0.0
2016-Jul-18 07:31N 51°55' E 003°36'0 0.0
2016-Jul-18 06:25N 51°55' E 003°36'  
Track history (hours):
 
Tides and Currents Weather Stations Pressure Air Temp Water Temp Dewpoint Dewpoint Depression Visibility Wind Speed Wind Dir Waves Ship Positions

M\t Procida

Last reported at 2016-Jul-28 05:34 UTC. Time now 2016-Jul-28 06:43 UTC.
Position N 57°36' E 011°39'.

Length 149 m; draft 9.3 m.

Type: Tanker. MMSI: 247258400.

Date/timePositionNaut miles runAvg speedWind from/ knotsBaromVisibWave heightAir tempDewpointWater temp
2016-Jul-28 05:34N 57°36' E 011°39'2 2.2
2016-Jul-28 04:33N 57°34' E 011°39'0 0.0
2016-Jul-28 03:30N 57°34' E 011°39'0 0.0
2016-Jul-28 02:33N 57°34' E 011°39'1 0.5
2016-Jul-28 01:33N 57°34' E 011°38'8 7.9
2016-Jul-28 00:33N 57°37' E 011°24'1211.5
2016-Jul-27 23:33N 57°44' E 011°07'1212.4
2016-Jul-27 22:33N 57°49' E 010°46'1313.0
2016-Jul-27 21:33N 57°48' E 010°22'41312.4
2016-Jul-26 12:16N 56°11' W 001°55'912.3
2016-Jul-26 11:33N 56°10' W 002°10'1212.5
2016-Jul-26 10:33N 56°08' W 002°32'1313.2
2016-Jul-26 09:33N 56°07' W 002°56'3 3.2
2016-Jul-26 08:33N 56°08' W 003°02'2 2.0
2016-Jul-26 07:33N 56°06' W 003°03'10 9.6
2016-Jul-26 06:33N 56°01' W 003°18'1110.2
2016-Jul-26 05:29N 56°02' W 003°37'2 2.4
2016-Jul-26 04:33N 56°02' W 003°41'0 0.0
2016-Jul-24 05:33N 56°02' W 003°41'1 1.3
2016-Jul-24 04:28N 56°02' W 003°39'8 8.7
2016-Jul-24 03:31N 56°00' W 003°25'1010.9
2016-Jul-24 02:33N 56°03' W 003°07'2 1.9
2016-Jul-24 01:34N 56°04' W 003°04'0 0.1
2016-Jul-24 00:33N 56°04' W 003°04'0 0.1
2016-Jul-23 23:34N 56°05' W 003°04'0 0.0
2016-Jul-23 22:34N 56°05' W 003°04'0 0.0
2016-Jul-23 21:34N 56°05' W 003°04'0 0.0
2016-Jul-23 20:34N 56°05' W 003°04'0 0.0
2016-Jul-23 19:34N 56°05' W 003°04'0 0.0
2016-Jul-23 18:33N 56°05' W 003°04'0 0.0
2016-Jul-23 17:34N 56°05' W 003°04'0 0.1
2016-Jul-23 16:34N 56°05' W 003°04'0 0.0
2016-Jul-23 15:31N 56°05' W 003°04'0 0.0
2016-Jul-23 14:33N 56°04' W 003°04'0 0.0
2016-Jul-23 13:34N 56°04' W 003°04'0 0.0
2016-Jul-23 12:31N 56°04' W 003°04'0 0.0
2016-Jul-23 11:31N 56°04' W 003°04'0 0.1
2016-Jul-23 10:34N 56°05' W 003°04'0 0.0
2016-Jul-23 09:30N 56°05' W 003°04'0 0.0
2016-Jul-23 08:33N 56°05' W 003°04'0 0.0
2016-Jul-23 07:33N 56°05' W 003°04'0 0.0
2016-Jul-23 06:34N 56°05' W 003°04'0 0.0
2016-Jul-23 04:34N 56°05' W 003°04'0 0.1
2016-Jul-23 03:33N 56°05' W 003°04'2 2.2
2016-Jul-23 02:33N 56°05' W 003°01'8 7.6
2016-Jul-23 01:33N 56°07' W 002°47'1211.7
2016-Jul-23 00:33N 56°07' W 002°26'1312.5
2016-Jul-22 23:33N 56°04' W 002°04'1312.8
2016-Jul-22 22:33N 56°00' W 001°42'22312.3
2016-Jul-22 04:25N 54°02' E 003°48'1110.9
2016-Jul-22 03:23N 53°55' E 003°34'1512.3
2016-Jul-22 02:08N 53°44' E 003°14'812.9
2016-Jul-22 01:33N 53°38' E 003°07'1313.1
2016-Jul-22 00:33N 53°26' E 002°57'1312.8
2016-Jul-21 23:33N 53°15' E 002°48'1212.2
2016-Jul-21 22:33N 53°04' E 002°40'1111.6
2016-Jul-21 21:33N 52°52' E 002°43'1211.7
2016-Jul-21 20:33N 52°41' E 002°44'1212.4
2016-Jul-21 19:33N 52°28' E 002°43'1312.8
2016-Jul-21 18:33N 52°16' E 002°49'1413.9
2016-Jul-21 17:33N 52°06' E 003°04'1312.8
2016-Jul-21 16:31N 52°04' E 003°26'1212.2
2016-Jul-21 15:33N 52°04' E 003°45'1010.0
2016-Jul-21 14:33N 52°01' E 004°00'10 9.4
2016-Jul-21 13:32N 51°55' E 004°13'0 0.0
2016-Jul-21 12:32N 51°55' E 004°13'0 0.0
2016-Jul-21 11:29N 51°55' E 004°13'0 0.0
2016-Jul-21 10:32N 51°55' E 004°13'0 0.0
2016-Jul-21 09:32N 51°55' E 004°13'0 0.0
2016-Jul-21 08:32N 51°55' E 004°13'0 0.0
2016-Jul-21 07:32N 51°55' E 004°13'0 0.0
2016-Jul-21 06:32N 51°55' E 004°13'0 0.0
2016-Jul-21 05:32N 51°55' E 004°13'0 0.0
2016-Jul-21 04:32N 51°55' E 004°13'0 0.0
2016-Jul-21 03:29N 51°55' E 004°13'0 0.0
2016-Jul-21 02:32N 51°55' E 004°13'0 0.0
2016-Jul-21 01:32N 51°55' E 004°13'0 0.0
2016-Jul-21 00:32N 51°55' E 004°13'0 0.0
2016-Jul-20 23:32N 51°55' E 004°13'0 0.0
2016-Jul-20 22:32N 51°55' E 004°13'0 0.0
2016-Jul-20 21:32N 51°55' E 004°13'0 0.0
2016-Jul-20 20:32N 51°55' E 004°13'0 0.0
2016-Jul-20 19:32N 51°55' E 004°13'0 0.0
2016-Jul-20 18:32N 51°55' E 004°13'0 0.0
2016-Jul-20 17:32N 51°55' E 004°13'0 0.0
2016-Jul-20 16:29N 51°55' E 004°13'0 0.0
2016-Jul-20 15:32N 51°55' E 004°13'0 0.3
2016-Jul-20 14:33N 51°55' E 004°13'8 8.5
2016-Jul-20 13:34N 51°60' E 004°01'1111.2
2016-Jul-20 12:34N 51°59' E 003°43'6 5.3
2016-Jul-20 11:28N 51°55' E 003°36'0 0.1
2016-Jul-20 10:22N 51°55' E 003°36'0 0.0
2016-Jul-20 09:31N 51°55' E 003°36'0 0.0
2016-Jul-20 08:28N 51°55' E 003°36'0 0.0
2016-Jul-20 07:31N 51°55' E 003°36'0 0.1
2016-Jul-20 06:31N 51°55' E 003°36'0 0.1
2016-Jul-20 05:31N 51°55' E 003°36'0 0.1
2016-Jul-20 04:28N 51°55' E 003°36'0 0.0
2016-Jul-20 03:31N 51°55' E 003°36'0 0.0
2016-Jul-20 02:31N 51°55' E 003°36'0 0.0
2016-Jul-20 01:28N 51°55' E 003°36'0 0.0
2016-Jul-20 00:31N 51°55' E 003°36'0 0.2
2016-Jul-19 23:31N 51°55' E 003°36'0 0.0
2016-Jul-19 22:31N 51°55' E 003°36'0 0.0
2016-Jul-19 21:31N 51°55' E 003°36'0 0.0
2016-Jul-19 20:31N 51°55' E 003°36'0 0.0
2016-Jul-19 19:10N 51°55' E 003°36'0 0.0
2016-Jul-19 18:28N 51°55' E 003°36'0 0.0
2016-Jul-19 17:31N 51°55' E 003°36'0 0.1
2016-Jul-19 16:31N 51°55' E 003°36'0 0.0
2016-Jul-19 15:28N 51°55' E 003°36'0 0.0
2016-Jul-19 14:28N 51°55' E 003°36'0 0.0
2016-Jul-19 13:28N 51°55' E 003°36'0 0.1
2016-Jul-19 12:28N 51°55' E 003°36'0 0.1
2016-Jul-19 11:19N 51°55' E 003°36'0 0.0
2016-Jul-19 10:31N 51°55' E 003°36'0 0.0
2016-Jul-19 09:31N 51°55' E 003°36'0 0.0
2016-Jul-19 08:31N 51°55' E 003°36'0 0.0
2016-Jul-19 07:28N 51°55' E 003°36'0 0.1
2016-Jul-19 04:31N 51°55' E 003°36'0 0.0
2016-Jul-19 03:31N 51°55' E 003°36'0 0.0
2016-Jul-19 02:28N 51°55' E 003°36'0 0.0
2016-Jul-19 01:16N 51°55' E 003°36'0 0.0
2016-Jul-19 00:31N 51°55' E 003°36'0 0.0
2016-Jul-18 23:28N 51°55' E 003°36'0 0.2
2016-Jul-18 22:31N 51°55' E 003°36'0 0.0
2016-Jul-18 21:31N 51°55' E 003°36'0 0.0
2016-Jul-18 20:25N 51°55' E 003°36'0 0.0
2016-Jul-18 19:31N 51°55' E 003°36'0 0.0
2016-Jul-18 18:31N 51°55' E 003°36'0 0.0
2016-Jul-18 17:31N 51°55' E 003°36'0 0.1
2016-Jul-18 16:28N 51°55' E 003°36'0 0.0
2016-Jul-18 15:31N 51°55' E 003°36'0 0.0
2016-Jul-18 14:31N 51°55' E 003°36'0 0.0
2016-Jul-18 13:31N 51°55' E 003°36'0 0.0
2016-Jul-18 12:31N 51°55' E 003°36'0 0.0
2016-Jul-18 11:31N 51°55' E 003°36'0 0.1
2016-Jul-18 10:28N 51°55' E 003°36'0 0.1
2016-Jul-18 09:31N 51°55' E 003°36'0 0.0
2016-Jul-18 08:31N 51°55' E 003°36'0 0.0
2016-Jul-18 07:31N 51°55' E 003°36'0 0.0
2016-Jul-18 06:25N 51°55' E 003°36'  

Dump ship's entire track history